createdAt,value
2023-01-21T00:01:25.540Z,268.21053
2023-01-21T00:06:27.209Z,258.28571
2023-01-21T00:11:28.832Z,346.61438
2023-01-21T00:16:30.460Z,269.92593
2023-01-21T00:21:32.126Z,346.61438
2023-01-21T00:26:33.781Z,479.65217
2023-01-21T00:31:35.760Z,494
2023-01-21T00:36:37.399Z,357.42282
2023-01-21T00:41:39.092Z,504
2023-01-21T00:46:40.859Z,329
2023-01-21T00:51:42.483Z,269.92593
2023-01-21T00:56:44.185Z,266.51309
2023-01-21T01:01:46.217Z,261.52577
2023-01-21T01:06:47.966Z,247.44828
2023-01-21T01:11:49.613Z,278.78261
2023-01-21T01:16:51.213Z,208.37768
2023-01-21T01:21:52.826Z,234.56604
2023-01-21T01:26:54.509Z,349.26316
2023-01-21T01:31:56.256Z,255.11111
2023-01-21T01:36:57.788Z,226.56881
2023-01-21T01:41:59.702Z,286.22222
2023-01-21T01:47:01.414Z,365.91781
2023-01-21T01:52:03.130Z,592.42105
2023-01-21T01:57:04.788Z,448.91803
2023-01-21T02:02:06.506Z,326.6087
2023-01-21T02:07:08.219Z,227.87097
2023-01-21T02:12:09.928Z,212.99563
2023-01-21T02:17:11.525Z,256.69036
2023-01-21T02:22:13.169Z,208.37768
2023-01-21T02:27:14.891Z,298.02299
2023-01-21T02:32:16.555Z,296
2023-01-21T02:37:18.289Z,288.13408
2023-01-21T02:42:19.966Z,233.20188
2023-01-21T02:47:21.634Z,237.33333
2023-01-21T02:52:23.339Z,264.83333
2023-01-21T02:57:25.041Z,331.42138
2023-01-21T03:02:26.716Z,390.37681
2023-01-21T03:07:28.576Z,326.6087
2023-01-21T03:12:30.285Z,324.24691
2023-01-21T03:17:32.066Z,264.83333
2023-01-21T03:22:33.720Z,338.87179
2023-01-21T03:27:35.377Z,336.35669
2023-01-21T03:32:37.124Z,400.2963
2023-01-21T03:37:38.940Z,354.66667
2023-01-21T03:42:40.552Z,421.51938
2023-01-21T03:47:42.616Z,403.70149
2023-01-21T03:52:44.244Z,444.81301
2023-01-21T03:57:45.910Z,319.60976
2023-01-21T04:02:47.666Z,243.02913
2023-01-21T04:07:49.317Z,377.80282
2023-01-21T04:12:50.968Z,432.88889
2023-01-21T04:17:52.610Z,547.92157
2023-01-21T04:22:54.392Z,310.66667
2023-01-21T04:27:57.272Z,261.52577
2023-01-21T04:32:58.949Z,341.41935
2023-01-21T04:38:00.614Z,380.87943
2023-01-21T04:43:02.280Z,380.87943
2023-01-21T04:48:04.074Z,525.13208
2023-01-21T04:53:05.729Z,479.65217
2023-01-21T04:58:07.361Z,414.22901
2023-01-21T05:03:08.990Z,475.03448
2023-01-21T05:08:10.701Z,599.31915
2023-01-21T05:13:12.434Z,374.76923
2023-01-21T05:18:14.092Z,592.42105
2023-01-21T05:23:15.723Z,695.21951
2023-01-21T05:28:17.466Z,519.70093
2023-01-21T05:33:19.164Z,824
2023-01-21T05:38:20.811Z,1283.13043
2023-01-21T05:43:22.498Z,1565.05263
2023-01-21T05:48:24.457Z,1704
2023-01-21T05:53:26.079Z,2313.23077
2023-01-21T05:58:27.724Z,3366.22222
2023-01-21T06:03:29.491Z,4050.66667
2023-01-21T06:08:31.212Z,2313.23077
2023-01-21T06:13:32.893Z,849.88235
2023-01-21T06:18:34.725Z,489.13274
2023-01-21T06:23:36.333Z,613.56522
2023-01-21T06:28:37.953Z,553.90099
2023-01-21T06:33:39.562Z,1024.70175
2023-01-21T06:38:41.282Z,1312.88889
2023-01-21T06:43:43.009Z,2225.48148
2023-01-21T06:48:44.720Z,937.54839
2023-01-21T06:53:46.338Z,365.91781
2023-01-21T06:58:48.068Z,380.87943
2023-01-21T07:03:49.732Z,606.36559
2023-01-21T07:08:51.347Z,937.54839
2023-01-21T07:13:52.960Z,1704
2023-01-21T07:18:54.678Z,1655.11111
2023-01-21T07:23:56.300Z,1151.84314
2023-01-21T07:28:59.858Z,1655.11111
2023-01-21T07:34:03.579Z,1376.55814
2023-01-21T07:39:05.320Z,2877.33333
2023-01-21T07:44:06.971Z,3186.10526
2023-01-21T07:49:08.635Z,1201.14286
2023-01-21T07:54:10.367Z,432.88889
2023-01-21T07:59:12.059Z,1128.61538
2023-01-21T08:04:13.748Z,1997.33333
2023-01-21T08:09:15.527Z,3186.10526
2023-01-21T08:14:17.221Z,3186.10526
2023-01-21T08:19:18.857Z,2225.48148
2023-01-21T08:24:20.506Z,2408
2023-01-21T08:29:22.161Z,2408
2023-01-21T08:34:24.077Z,2622.26087
2023-01-21T08:39:25.714Z,1931.09677
2023-01-21T08:44:27.556Z,1704
2023-01-21T08:49:29.189Z,2313.23077
2023-01-21T08:54:31.080Z,1227.33333
2023-01-21T08:59:32.689Z,1254.6383
2023-01-21T09:04:34.372Z,2622.26087
2023-01-21T09:09:36.209Z,3567.52941
2023-01-21T09:14:37.836Z,5077.33333
2023-01-21T09:19:39.551Z,6788.44444
2023-01-21T09:24:41.186Z,8744
2023-01-21T09:29:42.836Z,2877.33333
2023-01-21T09:34:44.574Z,2744
2023-01-21T09:39:48.998Z,4682.46154
2023-01-21T09:44:51.210Z,1283.13043
2023-01-21T09:49:53.026Z,1755.76471
2023-01-21T09:54:54.605Z,2622.26087
2023-01-21T09:59:56.268Z,3794
2023-01-21T10:04:57.834Z,1608.86486
2023-01-21T10:09:59.490Z,1704
2023-01-21T10:15:01.188Z,1931.09677
2023-01-21T10:20:03.051Z,2313.23077
2023-01-21T10:25:04.733Z,2313.23077
2023-01-21T10:30:07.665Z,4344
2023-01-21T10:35:09.423Z,5077.33333
2023-01-21T10:40:11.068Z,3024
2023-01-21T10:45:12.766Z,4050.66667
2023-01-21T10:50:14.383Z,7644
2023-01-21T10:55:16.483Z,6788.44444
2023-01-21T11:00:18.406Z,6788.44444
2023-01-21T11:05:20.036Z,4682.46154
2023-01-21T11:10:21.679Z,4682.46154
2023-01-21T11:15:23.451Z,2744
2023-01-21T11:20:25.072Z,2313.23077
2023-01-21T11:25:27.257Z,1755.76471
2023-01-21T11:30:44.562Z,1931.09677
2023-01-21T11:35:51.131Z,2408
2023-01-21T11:40:52.752Z,2877.33333
2023-01-21T11:45:54.709Z,3024
2023-01-21T11:50:56.453Z,1484
2023-01-21T11:55:58.101Z,1997.33333
2023-01-21T12:00:59.740Z,1344
2023-01-21T12:06:01.389Z,988.0678
2023-01-21T12:11:03.052Z,1446.43902
2023-01-21T12:16:04.828Z,1106.26415
2023-01-21T12:21:06.483Z,1410.66667
2023-01-21T12:26:08.128Z,1655.11111
2023-01-21T12:31:09.862Z,1931.09677
2023-01-21T12:36:11.526Z,2068.13793
2023-01-21T12:41:13.161Z,988.0678
2023-01-21T12:46:15.036Z,1997.33333
2023-01-21T12:51:16.895Z,5544
2023-01-21T12:56:18.625Z,5077.33333
2023-01-21T13:01:20.263Z,4050.66667
2023-01-21T13:06:24.013Z,5077.33333
2023-01-21T13:11:27.744Z,3794
2023-01-21T13:16:29.428Z,5544
2023-01-21T13:21:31.154Z,6104
2023-01-21T13:26:32.905Z,5544
2023-01-21T13:31:34.634Z,3794
2023-01-21T13:36:36.510Z,3794
2023-01-21T13:41:38.158Z,7644
2023-01-21T13:46:39.746Z,8744
2023-01-21T13:51:41.539Z,5544
2023-01-21T13:56:43.161Z,4344
2023-01-21T14:01:44.957Z,3366.22222
2023-01-21T14:06:46.625Z,2068.13793
2023-01-21T14:11:48.696Z,3024
2023-01-21T14:16:50.465Z,6104
2023-01-21T14:21:52.129Z,12264
2023-01-21T14:26:53.739Z,10210.66667
2023-01-21T14:31:55.449Z,20477.33333
2023-01-21T14:36:57.272Z,20477.33333
2023-01-21T14:41:58.921Z,20477.33333
2023-01-21T14:47:00.663Z,20477.33333
2023-01-21T14:52:02.293Z,20477.33333
2023-01-21T14:57:10.279Z,15344
2023-01-21T15:02:19.355Z,15344
2023-01-21T15:07:21.062Z,20477.33333
2023-01-21T15:12:22.754Z,20477.33333
2023-01-21T15:17:24.418Z,30744
2023-01-21T15:22:26.044Z,30744
2023-01-21T15:27:27.661Z,20477.33333
2023-01-21T15:32:29.303Z,10210.66667
2023-01-21T15:37:30.926Z,6788.44444
2023-01-21T15:42:32.576Z,2744
2023-01-21T15:47:34.271Z,3794
2023-01-21T15:52:35.862Z,3794
2023-01-21T15:57:37.488Z,1344
2023-01-21T16:02:40.477Z,5077.33333
2023-01-21T16:07:42.215Z,12264
2023-01-21T16:12:43.913Z,6104
2023-01-21T16:17:45.589Z,6788.44444
2023-01-21T16:22:47.308Z,4050.66667
2023-01-21T16:27:49.158Z,2068.13793
2023-01-21T16:32:50.835Z,2622.26087
2023-01-21T16:37:52.487Z,1565.05263
2023-01-21T16:42:54.214Z,1869
2023-01-21T16:47:55.958Z,2744
2023-01-21T16:52:57.613Z,2068.13793
2023-01-21T16:57:59.299Z,1044
2023-01-21T17:03:01.185Z,1312.88889
2023-01-21T17:08:02.818Z,3366.22222
2023-01-21T17:13:04.551Z,20477.33333
2023-01-21T17:18:06.173Z,5544
2023-01-21T17:23:07.804Z,2744
2023-01-21T17:28:09.382Z,1376.55814
2023-01-21T17:33:11.021Z,906.5
2023-01-21T17:38:12.643Z,1151.84314
2023-01-21T17:43:14.341Z,1869
2023-01-21T17:48:16.010Z,3186.10526
2023-01-21T17:53:18.014Z,6788.44444
2023-01-21T17:58:19.662Z,8744
2023-01-21T18:03:21.363Z,2744
2023-01-21T18:08:22.981Z,3567.52941
2023-01-21T18:13:24.612Z,5544
2023-01-21T18:18:26.230Z,12264
2023-01-21T18:23:27.884Z,20477.33333
2023-01-21T18:28:29.513Z,61544
2023-01-21T18:33:31.272Z,20477.33333
2023-01-21T18:38:33.646Z,5544
2023-01-21T18:43:35.325Z,5544
2023-01-21T18:48:36.933Z,6788.44444
2023-01-21T18:53:38.589Z,15344
2023-01-21T18:58:40.373Z,4344
2023-01-21T19:03:41.985Z,5077.33333
2023-01-21T19:08:43.628Z,7644
2023-01-21T19:13:45.254Z,20477.33333
2023-01-21T19:18:47.092Z,30744
2023-01-21T19:23:48.785Z,30744
2023-01-21T19:28:50.374Z,30744
2023-01-21T19:33:52.150Z,30744
2023-01-21T19:38:53.874Z,30744
2023-01-21T19:43:55.697Z,30744
2023-01-21T19:48:57.357Z,30744
2023-01-21T19:53:58.986Z,61544
2023-01-21T19:59:00.667Z,61544
2023-01-21T20:04:02.355Z,61544
2023-01-21T20:09:03.980Z,61544
2023-01-21T20:14:05.644Z,61544
2023-01-21T20:19:07.318Z,61544
2023-01-21T20:24:09.073Z,61544
2023-01-21T20:29:10.698Z,61544
2023-01-21T20:34:12.331Z,61544
2023-01-21T20:39:14.078Z,61544
2023-01-21T20:44:15.730Z,61544
2023-01-21T20:49:17.355Z,61544
2023-01-21T20:54:19.017Z,61544
2023-01-21T20:59:20.680Z,61544
2023-01-21T21:04:22.313Z,61544
2023-01-21T21:09:23.986Z,61544
2023-01-21T21:14:25.747Z,61544
2023-01-21T21:19:27.373Z,61544
2023-01-21T21:24:29.041Z,61544
2023-01-21T21:29:30.748Z,61544
2023-01-21T21:34:32.442Z,61544
2023-01-21T21:39:34.036Z,61544
2023-01-21T21:44:35.684Z,0
2023-01-21T21:49:37.400Z,61544
2023-01-21T21:54:39.045Z,0
2023-01-21T21:59:40.677Z,61544
2023-01-21T22:04:42.319Z,0
2023-01-21T22:09:43.956Z,0
2023-01-21T22:14:45.581Z,0
2023-01-21T22:19:47.200Z,0
2023-01-21T22:24:48.837Z,0
2023-01-21T22:29:50.433Z,0
2023-01-21T22:34:52.176Z,61544
2023-01-21T22:39:53.849Z,0
2023-01-21T22:44:55.683Z,0
2023-01-21T22:49:57.344Z,61544
2023-01-21T22:54:59.006Z,61544
2023-01-21T23:00:02.361Z,61544
2023-01-21T23:05:04.259Z,61544
2023-01-21T23:10:05.934Z,61544
2023-01-21T23:15:07.676Z,0
2023-01-21T23:20:09.288Z,61544
2023-01-21T23:25:10.953Z,61544
2023-01-21T23:30:12.726Z,61544
2023-01-21T23:35:14.383Z,61544
2023-01-21T23:40:16.352Z,61544
2023-01-21T23:45:18.223Z,61544
2023-01-21T23:50:20.114Z,61544
2023-01-21T23:55:21.826Z,61544
